sensor_id;sensor_type;location;lat;lon;timestamp;P1;durP1;ratioP1;P2;durP2;ratioP2
17991;SDS011;9121;50.926;5.340;2023-12-20T00:01:37;31.07;;;7.20;;
17991;SDS011;9121;50.926;5.340;2023-12-20T00:04:04;21.93;;;6.33;;
17991;SDS011;9121;50.926;5.340;2023-12-20T00:06:32;31.33;;;5.87;;
17991;SDS011;9121;50.926;5.340;2023-12-20T00:08:59;27.30;;;5.27;;
17991;SDS011;9121;50.926;5.340;2023-12-20T00:11:25;22.60;;;5.07;;
17991;SDS011;9121;50.926;5.340;2023-12-20T00:13:52;30.07;;;4.40;;
17991;SDS011;9121;50.926;5.340;2023-12-20T00:16:21;17.27;;;3.80;;
17991;SDS011;9121;50.926;5.340;2023-12-20T00:18:47;21.70;;;4.17;;
17991;SDS011;9121;50.926;5.340;2023-12-20T00:21:14;19.23;;;3.40;;
17991;SDS011;9121;50.926;5.340;2023-12-20T00:23:41;18.20;;;3.40;;
17991;SDS011;9121;50.926;5.340;2023-12-20T00:26:08;8.63;;;2.70;;
17991;SDS011;9121;50.926;5.340;2023-12-20T00:28:35;18.03;;;3.03;;
17991;SDS011;9121;50.926;5.340;2023-12-20T00:31:03;16.33;;;3.73;;
17991;SDS011;9121;50.926;5.340;2023-12-20T00:33:31;17.20;;;3.30;;
17991;SDS011;9121;50.926;5.340;2023-12-20T00:35:58;13.00;;;3.17;;
17991;SDS011;9121;50.926;5.340;2023-12-20T00:38:25;20.10;;;3.27;;
17991;SDS011;9121;50.926;5.340;2023-12-20T00:40:52;21.80;;;3.07;;
17991;SDS011;9121;50.926;5.340;2023-12-20T00:43:19;19.30;;;3.23;;
17991;SDS011;9121;50.926;5.340;2023-12-20T00:45:45;21.10;;;3.03;;
17991;SDS011;9121;50.926;5.340;2023-12-20T00:48:12;16.03;;;2.87;;
17991;SDS011;9121;50.926;5.340;2023-12-20T00:50:41;18.97;;;3.33;;
17991;SDS011;9121;50.926;5.340;2023-12-20T00:53:08;17.87;;;3.40;;
17991;SDS011;9121;50.926;5.340;2023-12-20T00:55:35;19.30;;;2.80;;
17991;SDS011;9121;50.926;5.340;2023-12-20T00:58:02;22.77;;;3.50;;
17991;SDS011;9121;50.926;5.340;2023-12-20T01:00:29;14.67;;;2.57;;
17991;SDS011;9121;50.926;5.340;2023-12-20T01:02:56;20.23;;;2.40;;
17991;SDS011;9121;50.926;5.340;2023-12-20T01:05:23;15.13;;;2.60;;
17991;SDS011;9121;50.926;5.340;2023-12-20T01:07:51;19.33;;;3.40;;
17991;SDS011;9121;50.926;5.340;2023-12-20T01:10:18;13.47;;;2.87;;
17991;SDS011;9121;50.926;5.340;2023-12-20T01:12:45;20.07;;;3.53;;
17991;SDS011;9121;50.926;5.340;2023-12-20T01:15:12;21.20;;;3.13;;
17991;SDS011;9121;50.926;5.340;2023-12-20T01:17:39;11.67;;;2.50;;
17991;SDS011;9121;50.926;5.340;2023-12-20T01:20:06;17.00;;;3.00;;
17991;SDS011;9121;50.926;5.340;2023-12-20T01:22:34;18.40;;;2.73;;
17991;SDS011;9121;50.926;5.340;2023-12-20T01:25:03;18.00;;;3.00;;
17991;SDS011;9121;50.926;5.340;2023-12-20T01:27:30;15.63;;;2.67;;
17991;SDS011;9121;50.926;5.340;2023-12-20T01:29:57;21.47;;;3.40;;
17991;SDS011;9121;50.926;5.340;2023-12-20T01:32:24;9.37;;;2.40;;
17991;SDS011;9121;50.926;5.340;2023-12-20T01:34:50;16.80;;;2.77;;
17991;SDS011;9121;50.926;5.340;2023-12-20T01:37:17;16.03;;;3.23;;
17991;SDS011;9121;50.926;5.340;2023-12-20T01:39:44;25.23;;;2.87;;
17991;SDS011;9121;50.926;5.340;2023-12-20T01:42:13;13.77;;;3.13;;
17991;SDS011;9121;50.926;5.340;2023-12-20T01:44:40;17.63;;;3.40;;
17991;SDS011;9121;50.926;5.340;2023-12-20T01:47:07;21.37;;;3.40;;
17991;SDS011;9121;50.926;5.340;2023-12-20T01:49:34;16.10;;;3.43;;
17991;SDS011;9121;50.926;5.340;2023-12-20T01:52:01;21.77;;;3.40;;
17991;SDS011;9121;50.926;5.340;2023-12-20T01:54:28;14.40;;;3.27;;
17991;SDS011;9121;50.926;5.340;2023-12-20T01:56:56;16.07;;;3.70;;
17991;SDS011;9121;50.926;5.340;2023-12-20T01:59:24;22.30;;;4.43;;
17991;SDS011;9121;50.926;5.340;2023-12-20T02:01:52;25.53;;;3.50;;
17991;SDS011;9121;50.926;5.340;2023-12-20T02:04:19;19.90;;;3.97;;
17991;SDS011;9121;50.926;5.340;2023-12-20T02:06:46;27.53;;;3.57;;
17991;SDS011;9121;50.926;5.340;2023-12-20T02:09:14;17.50;;;4.83;;
17991;SDS011;9121;50.926;5.340;2023-12-20T02:11:41;18.93;;;3.53;;
17991;SDS011;9121;50.926;5.340;2023-12-20T02:14:09;18.83;;;3.40;;
17991;SDS011;9121;50.926;5.340;2023-12-20T02:16:37;21.33;;;3.97;;
17991;SDS011;9121;50.926;5.340;2023-12-20T02:19:05;26.63;;;5.13;;
17991;SDS011;9121;50.926;5.340;2023-12-20T02:21:40;22.33;;;4.07;;
17991;SDS011;9121;50.926;5.340;2023-12-20T02:24:07;20.37;;;3.30;;
17991;SDS011;9121;50.926;5.340;2023-12-20T02:26:34;21.37;;;4.37;;
17991;SDS011;9121;50.926;5.340;2023-12-20T02:29:01;18.37;;;3.87;;
17991;SDS011;9121;50.926;5.340;2023-12-20T02:31:28;18.00;;;4.33;;
17991;SDS011;9121;50.926;5.340;2023-12-20T02:33:55;18.60;;;4.37;;
17991;SDS011;9121;50.926;5.340;2023-12-20T02:36:22;16.97;;;3.73;;
17991;SDS011;9121;50.926;5.340;2023-12-20T02:38:51;15.93;;;3.87;;
17991;SDS011;9121;50.926;5.340;2023-12-20T02:41:17;15.97;;;3.80;;
17991;SDS011;9121;50.926;5.340;2023-12-20T02:43:45;12.90;;;3.50;;
17991;SDS011;9121;50.926;5.340;2023-12-20T02:46:12;20.60;;;4.10;;
17991;SDS011;9121;50.926;5.340;2023-12-20T02:48:42;18.27;;;3.60;;
17991;SDS011;9121;50.926;5.340;2023-12-20T02:51:09;13.90;;;3.27;;
17991;SDS011;9121;50.926;5.340;2023-12-20T02:53:35;16.10;;;3.47;;
17991;SDS011;9121;50.926;5.340;2023-12-20T02:56:04;20.03;;;3.70;;
17991;SDS011;9121;50.926;5.340;2023-12-20T02:58:31;15.23;;;3.10;;
17991;SDS011;9121;50.926;5.340;2023-12-20T03:00:58;16.10;;;3.47;;
17991;SDS011;9121;50.926;5.340;2023-12-20T03:03:25;13.03;;;3.17;;
17991;SDS011;9121;50.926;5.340;2023-12-20T03:05:52;24.97;;;4.40;;
17991;SDS011;9121;50.926;5.340;2023-12-20T03:08:19;19.73;;;4.37;;
17991;SDS011;9121;50.926;5.340;2023-12-20T03:10:46;18.23;;;3.63;;
17991;SDS011;9121;50.926;5.340;2023-12-20T03:13:14;27.67;;;4.33;;
17991;SDS011;9121;50.926;5.340;2023-12-20T03:15:41;16.20;;;4.13;;
17991;SDS011;9121;50.926;5.340;2023-12-20T03:18:08;22.47;;;4.20;;
17991;SDS011;9121;50.926;5.340;2023-12-20T03:20:35;18.87;;;3.63;;
17991;SDS011;9121;50.926;5.340;2023-12-20T03:23:02;21.60;;;4.40;;
17991;SDS011;9121;50.926;5.340;2023-12-20T03:25:30;17.40;;;3.90;;
17991;SDS011;9121;50.926;5.340;2023-12-20T03:27:57;20.50;;;4.13;;
17991;SDS011;9121;50.926;5.340;2023-12-20T03:30:25;23.00;;;5.00;;
17991;SDS011;9121;50.926;5.340;2023-12-20T03:32:52;18.77;;;4.10;;
17991;SDS011;9121;50.926;5.340;2023-12-20T03:35:19;25.47;;;5.00;;
17991;SDS011;9121;50.926;5.340;2023-12-20T03:37:45;15.70;;;4.00;;
17991;SDS011;9121;50.926;5.340;2023-12-20T03:40:12;22.20;;;4.00;;
17991;SDS011;9121;50.926;5.340;2023-12-20T03:42:39;21.70;;;4.10;;
17991;SDS011;9121;50.926;5.340;2023-12-20T03:45:07;12.43;;;3.90;;
17991;SDS011;9121;50.926;5.340;2023-12-20T03:47:36;16.27;;;4.00;;
17991;SDS011;9121;50.926;5.340;2023-12-20T03:50:03;20.00;;;3.83;;
17991;SDS011;9121;50.926;5.340;2023-12-20T03:52:31;18.50;;;4.03;;
17991;SDS011;9121;50.926;5.340;2023-12-20T03:54:58;21.53;;;5.10;;
17991;SDS011;9121;50.926;5.340;2023-12-20T03:57:26;27.27;;;5.83;;
17991;SDS011;9121;50.926;5.340;2023-12-20T03:59:52;19.10;;;4.27;;
17991;SDS011;9121;50.926;5.340;2023-12-20T04:02:19;21.13;;;3.80;;
17991;SDS011;9121;50.926;5.340;2023-12-20T04:04:48;23.10;;;5.13;;
17991;SDS011;9121;50.926;5.340;2023-12-20T04:07:15;22.97;;;4.73;;
17991;SDS011;9121;50.926;5.340;2023-12-20T04:09:42;17.77;;;4.60;;
17991;SDS011;9121;50.926;5.340;2023-12-20T04:12:08;23.23;;;4.57;;
17991;SDS011;9121;50.926;5.340;2023-12-20T04:14:35;22.27;;;4.83;;
17991;SDS011;9121;50.926;5.340;2023-12-20T04:17:03;23.23;;;5.00;;
17991;SDS011;9121;50.926;5.340;2023-12-20T04:19:30;20.93;;;4.47;;
17991;SDS011;9121;50.926;5.340;2023-12-20T04:21:58;21.43;;;4.60;;
17991;SDS011;9121;50.926;5.340;2023-12-20T04:24:25;21.73;;;4.30;;
17991;SDS011;9121;50.926;5.340;2023-12-20T04:26:52;29.87;;;4.33;;
17991;SDS011;9121;50.926;5.340;2023-12-20T04:29:19;25.50;;;4.50;;
17991;SDS011;9121;50.926;5.340;2023-12-20T04:31:46;20.07;;;4.47;;
17991;SDS011;9121;50.926;5.340;2023-12-20T04:34:13;25.60;;;4.70;;
17991;SDS011;9121;50.926;5.340;2023-12-20T04:36:39;19.93;;;4.53;;
17991;SDS011;9121;50.926;5.340;2023-12-20T04:39:08;26.47;;;4.20;;
17991;SDS011;9121;50.926;5.340;2023-12-20T04:41:35;22.43;;;4.40;;
17991;SDS011;9121;50.926;5.340;2023-12-20T04:44:02;20.57;;;4.30;;
17991;SDS011;9121;50.926;5.340;2023-12-20T04:46:29;28.70;;;4.53;;
17991;SDS011;9121;50.926;5.340;2023-12-20T04:48:56;15.77;;;4.30;;
17991;SDS011;9121;50.926;5.340;2023-12-20T04:51:23;18.67;;;4.03;;
17991;SDS011;9121;50.926;5.340;2023-12-20T04:53:50;25.67;;;4.23;;
17991;SDS011;9121;50.926;5.340;2023-12-20T04:56:18;21.80;;;4.13;;
17991;SDS011;9121;50.926;5.340;2023-12-20T04:58:45;24.43;;;4.57;;
17991;SDS011;9121;50.926;5.340;2023-12-20T05:01:12;27.90;;;5.33;;
17991;SDS011;9121;50.926;5.340;2023-12-20T05:03:39;22.97;;;5.07;;
17991;SDS011;9121;50.926;5.340;2023-12-20T05:06:06;24.57;;;5.00;;
17991;SDS011;9121;50.926;5.340;2023-12-20T05:08:33;38.17;;;5.70;;
17991;SDS011;9121;50.926;5.340;2023-12-20T05:11:00;19.70;;;4.97;;
17991;SDS011;9121;50.926;5.340;2023-12-20T05:13:28;28.97;;;5.60;;
17991;SDS011;9121;50.926;5.340;2023-12-20T05:15:55;23.07;;;5.53;;
17991;SDS011;9121;50.926;5.340;2023-12-20T05:18:22;26.77;;;5.33;;
17991;SDS011;9121;50.926;5.340;2023-12-20T05:20:49;22.67;;;5.63;;
17991;SDS011;9121;50.926;5.340;2023-12-20T05:23:16;26.30;;;5.60;;
17991;SDS011;9121;50.926;5.340;2023-12-20T05:25:45;30.93;;;5.90;;
17991;SDS011;9121;50.926;5.340;2023-12-20T05:28:12;24.53;;;5.37;;
17991;SDS011;9121;50.926;5.340;2023-12-20T05:30:40;27.53;;;5.37;;
17991;SDS011;9121;50.926;5.340;2023-12-20T05:33:07;22.30;;;5.57;;
17991;SDS011;9121;50.926;5.340;2023-12-20T05:35:34;32.63;;;6.07;;
17991;SDS011;9121;50.926;5.340;2023-12-20T05:38:01;20.00;;;5.70;;
17991;SDS011;9121;50.926;5.340;2023-12-20T05:40:28;30.47;;;6.13;;
17991;SDS011;9121;50.926;5.340;2023-12-20T05:42:55;23.73;;;5.53;;
17991;SDS011;9121;50.926;5.340;2023-12-20T05:45:22;22.03;;;5.27;;
17991;SDS011;9121;50.926;5.340;2023-12-20T05:47:50;30.07;;;6.40;;
17991;SDS011;9121;50.926;5.340;2023-12-20T05:50:17;26.07;;;5.57;;
17991;SDS011;9121;50.926;5.340;2023-12-20T05:52:44;21.50;;;5.50;;
17991;SDS011;9121;50.926;5.340;2023-12-20T05:55:11;22.63;;;6.03;;
17991;SDS011;9121;50.926;5.340;2023-12-20T05:57:38;25.73;;;5.90;;
17991;SDS011;9121;50.926;5.340;2023-12-20T06:00:05;17.73;;;5.20;;
17991;SDS011;9121;50.926;5.340;2023-12-20T06:02:34;22.17;;;5.23;;
17991;SDS011;9121;50.926;5.340;2023-12-20T06:05:03;23.60;;;5.70;;
17991;SDS011;9121;50.926;5.340;2023-12-20T06:07:31;22.27;;;5.73;;
17991;SDS011;9121;50.926;5.340;2023-12-20T06:09:58;24.87;;;5.47;;
17991;SDS011;9121;50.926;5.340;2023-12-20T06:12:24;25.20;;;5.40;;
17991;SDS011;9121;50.926;5.340;2023-12-20T06:14:52;23.80;;;5.33;;
17991;SDS011;9121;50.926;5.340;2023-12-20T06:17:19;26.53;;;5.43;;
17991;SDS011;9121;50.926;5.340;2023-12-20T06:19:46;29.50;;;5.90;;
17991;SDS011;9121;50.926;5.340;2023-12-20T06:22:14;21.67;;;5.67;;
17991;SDS011;9121;50.926;5.340;2023-12-20T06:24:44;23.23;;;5.27;;
17991;SDS011;9121;50.926;5.340;2023-12-20T06:27:10;24.90;;;5.50;;
17991;SDS011;9121;50.926;5.340;2023-12-20T06:29:38;26.53;;;5.80;;
17991;SDS011;9121;50.926;5.340;2023-12-20T06:32:06;22.07;;;5.13;;
17991;SDS011;9121;50.926;5.340;2023-12-20T06:34:33;24.13;;;5.57;;
17991;SDS011;9121;50.926;5.340;2023-12-20T06:37:00;22.73;;;5.43;;
17991;SDS011;9121;50.926;5.340;2023-12-20T06:39:28;20.70;;;5.37;;
17991;SDS011;9121;50.926;5.340;2023-12-20T06:41:55;20.80;;;6.00;;
17991;SDS011;9121;50.926;5.340;2023-12-20T06:44:22;19.47;;;5.70;;
17991;SDS011;9121;50.926;5.340;2023-12-20T06:46:49;33.30;;;6.27;;
17991;SDS011;9121;50.926;5.340;2023-12-20T06:49:16;24.70;;;5.73;;
17991;SDS011;9121;50.926;5.340;2023-12-20T06:51:43;24.07;;;5.77;;
17991;SDS011;9121;50.926;5.340;2023-12-20T06:54:10;32.80;;;5.93;;
17991;SDS011;9121;50.926;5.340;2023-12-20T06:56:39;13.40;;;5.13;;
17991;SDS011;9121;50.926;5.340;2023-12-20T06:59:06;22.53;;;5.30;;
17991;SDS011;9121;50.926;5.340;2023-12-20T07:01:33;24.30;;;5.53;;
17991;SDS011;9121;50.926;5.340;2023-12-20T07:04:00;25.83;;;5.60;;
17991;SDS011;9121;50.926;5.340;2023-12-20T07:06:27;20.83;;;5.47;;
17991;SDS011;9121;50.926;5.340;2023-12-20T07:08:54;22.83;;;5.40;;
17991;SDS011;9121;50.926;5.340;2023-12-20T07:11:21;23.47;;;5.53;;
17991;SDS011;9121;50.926;5.340;2023-12-20T07:13:49;32.63;;;5.93;;
17991;SDS011;9121;50.926;5.340;2023-12-20T07:16:16;28.83;;;5.53;;
17991;SDS011;9121;50.926;5.340;2023-12-20T07:18:43;24.37;;;5.30;;
17991;SDS011;9121;50.926;5.340;2023-12-20T07:21:10;28.43;;;5.60;;
17991;SDS011;9121;50.926;5.340;2023-12-20T07:23:37;32.27;;;6.10;;
17991;SDS011;9121;50.926;5.340;2023-12-20T07:26:04;26.43;;;6.23;;
17991;SDS011;9121;50.926;5.340;2023-12-20T07:28:31;23.73;;;5.57;;
17991;SDS011;9121;50.926;5.340;2023-12-20T07:31:00;25.77;;;6.07;;
17991;SDS011;9121;50.926;5.340;2023-12-20T07:33:27;32.10;;;6.03;;
17991;SDS011;9121;50.926;5.340;2023-12-20T07:35:54;23.67;;;5.53;;
17991;SDS011;9121;50.926;5.340;2023-12-20T07:38:21;29.27;;;5.80;;
17991;SDS011;9121;50.926;5.340;2023-12-20T07:40:48;17.87;;;5.50;;
17991;SDS011;9121;50.926;5.340;2023-12-20T07:43:15;25.80;;;5.80;;
17991;SDS011;9121;50.926;5.340;2023-12-20T07:45:42;24.73;;;6.07;;
17991;SDS011;9121;50.926;5.340;2023-12-20T07:48:10;18.43;;;5.23;;
17991;SDS011;9121;50.926;5.340;2023-12-20T07:50:37;29.37;;;5.90;;
17991;SDS011;9121;50.926;5.340;2023-12-20T07:53:04;26.17;;;5.53;;
17991;SDS011;9121;50.926;5.340;2023-12-20T07:55:31;25.57;;;6.00;;
17991;SDS011;9121;50.926;5.340;2023-12-20T07:57:59;29.63;;;6.13;;
17991;SDS011;9121;50.926;5.340;2023-12-20T08:00:27;24.13;;;5.57;;
17991;SDS011;9121;50.926;5.340;2023-12-20T08:02:54;30.73;;;5.57;;
17991;SDS011;9121;50.926;5.340;2023-12-20T08:05:22;24.30;;;5.23;;
17991;SDS011;9121;50.926;5.340;2023-12-20T08:07:49;24.07;;;5.20;;
17991;SDS011;9121;50.926;5.340;2023-12-20T08:10:16;23.00;;;4.93;;
17991;SDS011;9121;50.926;5.340;2023-12-20T08:12:44;20.50;;;5.00;;
17991;SDS011;9121;50.926;5.340;2023-12-20T08:15:11;24.83;;;5.33;;
17991;SDS011;9121;50.926;5.340;2023-12-20T08:17:38;20.07;;;4.93;;
17991;SDS011;9121;50.926;5.340;2023-12-20T08:20:05;23.07;;;4.80;;
17991;SDS011;9121;50.926;5.340;2023-12-20T08:22:34;25.57;;;4.07;;
17991;SDS011;9121;50.926;5.340;2023-12-20T08:25:01;30.27;;;3.90;;
17991;SDS011;9121;50.926;5.340;2023-12-20T08:27:29;24.43;;;4.70;;
17991;SDS011;9121;50.926;5.340;2023-12-20T08:29:56;17.40;;;4.57;;
17991;SDS011;9121;50.926;5.340;2023-12-20T08:32:24;30.10;;;4.17;;
17991;SDS011;9121;50.926;5.340;2023-12-20T08:34:52;12.93;;;4.00;;
17991;SDS011;9121;50.926;5.340;2023-12-20T08:37:19;19.97;;;4.13;;
17991;SDS011;9121;50.926;5.340;2023-12-20T08:39:47;19.37;;;4.60;;
17991;SDS011;9121;50.926;5.340;2023-12-20T08:42:14;17.27;;;4.13;;
17991;SDS011;9121;50.926;5.340;2023-12-20T08:44:41;16.20;;;4.10;;
17991;SDS011;9121;50.926;5.340;2023-12-20T08:47:08;20.10;;;4.60;;
17991;SDS011;9121;50.926;5.340;2023-12-20T08:49:38;26.60;;;5.80;;
17991;SDS011;9121;50.926;5.340;2023-12-20T08:52:05;20.47;;;4.47;;
17991;SDS011;9121;50.926;5.340;2023-12-20T08:54:32;18.60;;;4.23;;
17991;SDS011;9121;50.926;5.340;2023-12-20T08:57:00;15.70;;;3.73;;
17991;SDS011;9121;50.926;5.340;2023-12-20T08:59:27;24.53;;;3.87;;
17991;SDS011;9121;50.926;5.340;2023-12-20T09:02:04;16.83;;;4.70;;
17991;SDS011;9121;50.926;5.340;2023-12-20T09:04:32;26.30;;;4.17;;
17991;SDS011;9121;50.926;5.340;2023-12-20T09:06:59;18.23;;;4.20;;
17991;SDS011;9121;50.926;5.340;2023-12-20T09:09:27;16.83;;;4.10;;
17991;SDS011;9121;50.926;5.340;2023-12-20T09:11:54;16.67;;;3.67;;
17991;SDS011;9121;50.926;5.340;2023-12-20T09:14:22;17.38;;;4.13;;
17991;SDS011;9121;50.926;5.340;2023-12-20T09:16:49;25.37;;;3.53;;
17991;SDS011;9121;50.926;5.340;2023-12-20T09:19:22;22.03;;;3.60;;
17991;SDS011;9121;50.926;5.340;2023-12-20T09:21:49;22.40;;;4.00;;
17991;SDS011;9121;50.926;5.340;2023-12-20T09:24:16;19.03;;;3.70;;
17991;SDS011;9121;50.926;5.340;2023-12-20T09:26:43;20.10;;;4.60;;
17991;SDS011;9121;50.926;5.340;2023-12-20T09:29:10;19.83;;;3.83;;
17991;SDS011;9121;50.926;5.340;2023-12-20T09:31:41;20.30;;;3.93;;
17991;SDS011;9121;50.926;5.340;2023-12-20T09:34:11;20.90;;;4.17;;
17991;SDS011;9121;50.926;5.340;2023-12-20T09:36:38;17.43;;;3.63;;
17991;SDS011;9121;50.926;5.340;2023-12-20T09:39:11;18.10;;;3.40;;
17991;SDS011;9121;50.926;5.340;2023-12-20T09:41:40;19.70;;;3.97;;
17991;SDS011;9121;50.926;5.340;2023-12-20T09:44:13;22.60;;;3.30;;
17991;SDS011;9121;50.926;5.340;2023-12-20T09:46:44;19.37;;;3.80;;
17991;SDS011;9121;50.926;5.340;2023-12-20T09:49:15;20.10;;;3.00;;
17991;SDS011;9121;50.926;5.340;2023-12-20T09:51:44;22.17;;;3.50;;
17991;SDS011;9121;50.926;5.340;2023-12-20T09:54:13;14.50;;;3.37;;
17991;SDS011;9121;50.926;5.340;2023-12-20T09:56:41;24.10;;;3.87;;
17991;SDS011;9121;50.926;5.340;2023-12-20T09:59:08;12.23;;;2.93;;
17991;SDS011;9121;50.926;5.340;2023-12-20T10:01:35;17.83;;;3.30;;
17991;SDS011;9121;50.926;5.340;2023-12-20T10:04:06;18.37;;;3.10;;
17991;SDS011;9121;50.926;5.340;2023-12-20T10:06:34;17.03;;;4.23;;
17991;SDS011;9121;50.926;5.340;2023-12-20T10:09:02;18.80;;;3.43;;
17991;SDS011;9121;50.926;5.340;2023-12-20T10:11:30;18.23;;;3.60;;
17991;SDS011;9121;50.926;5.340;2023-12-20T10:13:59;15.27;;;3.00;;
17991;SDS011;9121;50.926;5.340;2023-12-20T10:16:27;16.17;;;2.47;;
17991;SDS011;9121;50.926;5.340;2023-12-20T10:18:54;19.87;;;3.50;;
17991;SDS011;9121;50.926;5.340;2023-12-20T10:21:23;21.53;;;5.43;;
17991;SDS011;9121;50.926;5.340;2023-12-20T10:23:51;20.37;;;4.13;;
17991;SDS011;9121;50.926;5.340;2023-12-20T10:26:21;22.00;;;3.53;;
17991;SDS011;9121;50.926;5.340;2023-12-20T10:28:50;16.60;;;4.83;;
17991;SDS011;9121;50.926;5.340;2023-12-20T10:31:27;16.93;;;3.83;;
17991;SDS011;9121;50.926;5.340;2023-12-20T10:33:55;18.77;;;4.20;;
17991;SDS011;9121;50.926;5.340;2023-12-20T10:36:25;24.37;;;4.43;;
17991;SDS011;9121;50.926;5.340;2023-12-20T10:38:53;14.17;;;3.00;;
17991;SDS011;9121;50.926;5.340;2023-12-20T10:41:23;21.27;;;3.53;;
17991;SDS011;9121;50.926;5.340;2023-12-20T10:43:53;20.33;;;3.63;;
17991;SDS011;9121;50.926;5.340;2023-12-20T10:46:25;17.27;;;3.50;;
17991;SDS011;9121;50.926;5.340;2023-12-20T10:48:53;16.93;;;3.47;;
17991;SDS011;9121;50.926;5.340;2023-12-20T10:51:21;17.30;;;2.97;;
17991;SDS011;9121;50.926;5.340;2023-12-20T10:53:51;33.53;;;4.03;;
17991;SDS011;9121;50.926;5.340;2023-12-20T10:56:19;21.03;;;3.13;;
17991;SDS011;9121;50.926;5.340;2023-12-20T10:58:48;16.87;;;3.40;;
17991;SDS011;9121;50.926;5.340;2023-12-20T11:01:16;14.73;;;3.17;;
17991;SDS011;9121;50.926;5.340;2023-12-20T11:03:48;13.33;;;3.87;;
17991;SDS011;9121;50.926;5.340;2023-12-20T11:06:19;19.10;;;3.13;;
17991;SDS011;9121;50.926;5.340;2023-12-20T11:09:03;15.27;;;3.47;;
17991;SDS011;9121;50.926;5.340;2023-12-20T11:11:41;15.40;;;3.00;;
17991;SDS011;9121;50.926;5.340;2023-12-20T11:14:29;18.47;;;3.97;;
17991;SDS011;9121;50.926;5.340;2023-12-20T11:17:07;23.87;;;4.17;;
17991;SDS011;9121;50.926;5.340;2023-12-20T11:19:36;19.83;;;3.37;;
17991;SDS011;9121;50.926;5.340;2023-12-20T11:22:04;19.80;;;4.20;;
17991;SDS011;9121;50.926;5.340;2023-12-20T11:24:33;20.97;;;3.17;;
17991;SDS011;9121;50.926;5.340;2023-12-20T11:27:03;21.00;;;3.57;;
17991;SDS011;9121;50.926;5.340;2023-12-20T11:29:33;20.57;;;4.03;;
17991;SDS011;9121;50.926;5.340;2023-12-20T11:32:01;14.33;;;3.07;;
17991;SDS011;9121;50.926;5.340;2023-12-20T11:34:31;21.07;;;3.50;;
17991;SDS011;9121;50.926;5.340;2023-12-20T11:36:59;13.40;;;2.80;;
17991;SDS011;9121;50.926;5.340;2023-12-20T11:39:28;21.10;;;3.77;;
17991;SDS011;9121;50.926;5.340;2023-12-20T11:41:58;18.47;;;3.80;;
17991;SDS011;9121;50.926;5.340;2023-12-20T11:44:31;19.77;;;2.93;;
17991;SDS011;9121;50.926;5.340;2023-12-20T11:46:58;20.80;;;3.20;;
17991;SDS011;9121;50.926;5.340;2023-12-20T11:49:25;21.33;;;4.47;;
17991;SDS011;9121;50.926;5.340;2023-12-20T11:51:54;21.47;;;3.70;;
17991;SDS011;9121;50.926;5.340;2023-12-20T11:54:21;16.77;;;3.80;;
17991;SDS011;9121;50.926;5.340;2023-12-20T11:56:48;23.87;;;4.63;;
17991;SDS011;9121;50.926;5.340;2023-12-20T11:59:16;14.67;;;3.03;;
17991;SDS011;9121;50.926;5.340;2023-12-20T12:01:47;11.73;;;2.87;;
17991;SDS011;9121;50.926;5.340;2023-12-20T12:04:15;13.70;;;3.70;;
17991;SDS011;9121;50.926;5.340;2023-12-20T12:06:43;14.83;;;2.97;;
17991;SDS011;9121;50.926;5.340;2023-12-20T12:09:10;19.83;;;3.77;;
17991;SDS011;9121;50.926;5.340;2023-12-20T12:11:37;16.63;;;3.43;;
17991;SDS011;9121;50.926;5.340;2023-12-20T12:14:06;17.63;;;3.30;;
17991;SDS011;9121;50.926;5.340;2023-12-20T12:16:35;17.20;;;3.53;;
17991;SDS011;9121;50.926;5.340;2023-12-20T12:19:02;17.40;;;3.40;;
17991;SDS011;9121;50.926;5.340;2023-12-20T12:21:29;14.43;;;2.90;;
17991;SDS011;9121;50.926;5.340;2023-12-20T12:24:05;21.00;;;4.23;;
17991;SDS011;9121;50.926;5.340;2023-12-20T12:26:33;16.87;;;4.27;;
17991;SDS011;9121;50.926;5.340;2023-12-20T12:29:00;20.23;;;4.10;;
17991;SDS011;9121;50.926;5.340;2023-12-20T12:31:27;16.53;;;4.33;;
17991;SDS011;9121;50.926;5.340;2023-12-20T12:33:56;23.37;;;4.53;;
17991;SDS011;9121;50.926;5.340;2023-12-20T12:36:24;21.23;;;4.17;;
17991;SDS011;9121;50.926;5.340;2023-12-20T12:38:51;20.50;;;4.10;;
17991;SDS011;9121;50.926;5.340;2023-12-20T12:41:18;18.77;;;4.50;;
17991;SDS011;9121;50.926;5.340;2023-12-20T12:43:45;13.83;;;3.50;;
17991;SDS011;9121;50.926;5.340;2023-12-20T12:46:12;20.87;;;4.40;;
17991;SDS011;9121;50.926;5.340;2023-12-20T12:48:39;18.73;;;3.93;;
17991;SDS011;9121;50.926;5.340;2023-12-20T12:51:07;19.67;;;4.27;;
17991;SDS011;9121;50.926;5.340;2023-12-20T12:53:38;15.63;;;4.40;;
17991;SDS011;9121;50.926;5.340;2023-12-20T12:56:05;16.17;;;4.07;;
17991;SDS011;9121;50.926;5.340;2023-12-20T12:58:32;13.53;;;3.73;;
17991;SDS011;9121;50.926;5.340;2023-12-20T13:01:00;21.63;;;4.27;;
17991;SDS011;9121;50.926;5.340;2023-12-20T13:03:28;19.07;;;4.17;;
17991;SDS011;9121;50.926;5.340;2023-12-20T13:05:55;21.43;;;4.23;;
17991;SDS011;9121;50.926;5.340;2023-12-20T13:08:24;20.53;;;3.60;;
17991;SDS011;9121;50.926;5.340;2023-12-20T13:10:51;15.43;;;4.60;;
17991;SDS011;9121;50.926;5.340;2023-12-20T13:13:18;21.47;;;4.10;;
17991;SDS011;9121;50.926;5.340;2023-12-20T13:15:45;19.97;;;4.27;;
17991;SDS011;9121;50.926;5.340;2023-12-20T13:18:16;20.97;;;3.57;;
17991;SDS011;9121;50.926;5.340;2023-12-20T13:20:43;15.63;;;3.67;;
17991;SDS011;9121;50.926;5.340;2023-12-20T13:23:10;19.77;;;4.23;;
17991;SDS011;9121;50.926;5.340;2023-12-20T13:25:39;21.73;;;4.07;;
17991;SDS011;9121;50.926;5.340;2023-12-20T13:28:06;18.97;;;3.70;;
17991;SDS011;9121;50.926;5.340;2023-12-20T13:30:34;24.80;;;4.70;;
17991;SDS011;9121;50.926;5.340;2023-12-20T13:33:01;16.53;;;3.47;;
17991;SDS011;9121;50.926;5.340;2023-12-20T13:35:28;20.13;;;4.20;;
17991;SDS011;9121;50.926;5.340;2023-12-20T13:37:55;24.47;;;4.40;;
17991;SDS011;9121;50.926;5.340;2023-12-20T13:40:22;23.53;;;4.40;;
17991;SDS011;9121;50.926;5.340;2023-12-20T13:42:51;20.43;;;4.33;;
17991;SDS011;9121;50.926;5.340;2023-12-20T13:45:17;23.50;;;4.70;;
17991;SDS011;9121;50.926;5.340;2023-12-20T13:47:44;26.40;;;4.83;;
17991;SDS011;9121;50.926;5.340;2023-12-20T13:50:11;18.27;;;3.40;;
17991;SDS011;9121;50.926;5.340;2023-12-20T13:52:38;22.87;;;4.33;;
17991;SDS011;9121;50.926;5.340;2023-12-20T13:55:06;20.97;;;3.80;;
17991;SDS011;9121;50.926;5.340;2023-12-20T13:57:35;16.93;;;3.80;;
17991;SDS011;9121;50.926;5.340;2023-12-20T14:00:06;17.50;;;4.30;;
17991;SDS011;9121;50.926;5.340;2023-12-20T14:02:39;22.43;;;4.07;;
17991;SDS011;9121;50.926;5.340;2023-12-20T14:05:07;20.07;;;4.47;;
17991;SDS011;9121;50.926;5.340;2023-12-20T14:07:34;22.80;;;3.90;;
17991;SDS011;9121;50.926;5.340;2023-12-20T14:10:01;29.10;;;4.93;;
17991;SDS011;9121;50.926;5.340;2023-12-20T14:12:29;11.97;;;3.47;;
17991;SDS011;9121;50.926;5.340;2023-12-20T14:14:57;26.67;;;5.03;;
17991;SDS011;9121;50.926;5.340;2023-12-20T14:17:25;24.97;;;4.70;;
17991;SDS011;9121;50.926;5.340;2023-12-20T14:19:52;21.30;;;4.40;;
17991;SDS011;9121;50.926;5.340;2023-12-20T14:22:19;23.47;;;4.50;;
17991;SDS011;9121;50.926;5.340;2023-12-20T14:24:46;27.50;;;4.70;;
17991;SDS011;9121;50.926;5.340;2023-12-20T14:27:13;23.67;;;4.67;;
17991;SDS011;9121;50.926;5.340;2023-12-20T14:29:40;29.57;;;7.67;;
17991;SDS011;9121;50.926;5.340;2023-12-20T14:32:07;17.33;;;5.03;;
17991;SDS011;9121;50.926;5.340;2023-12-20T14:34:36;21.70;;;5.27;;
17991;SDS011;9121;50.926;5.340;2023-12-20T14:37:03;25.73;;;6.07;;
17991;SDS011;9121;50.926;5.340;2023-12-20T14:39:30;18.77;;;3.60;;
17991;SDS011;9121;50.926;5.340;2023-12-20T14:41:58;19.80;;;4.57;;
17991;SDS011;9121;50.926;5.340;2023-12-20T14:44:25;23.27;;;4.73;;
17991;SDS011;9121;50.926;5.340;2023-12-20T14:46:52;24.03;;;5.43;;
17991;SDS011;9121;50.926;5.340;2023-12-20T14:49:19;21.00;;;4.17;;
17991;SDS011;9121;50.926;5.340;2023-12-20T14:51:47;24.83;;;4.47;;